createdAt,value
2022-12-04T00:02:10.562Z,1.66
2022-12-04T00:04:37.163Z,1.41
2022-12-04T00:07:03.952Z,1.47
2022-12-04T00:09:30.542Z,1.44
2022-12-04T00:11:57.083Z,1.48
2022-12-04T00:14:23.908Z,1.49
2022-12-04T00:16:50.527Z,1.46
2022-12-04T00:19:17.401Z,1.54
2022-12-04T00:21:45.209Z,1.41
2022-12-04T00:24:12.070Z,1.52
2022-12-04T00:26:38.615Z,1.41
2022-12-04T00:29:05.473Z,1.54
2022-12-04T00:31:32.506Z,1.56
2022-12-04T00:34:00.327Z,1.60
2022-12-04T00:36:28.959Z,1.54
2022-12-04T00:38:55.940Z,1.48
2022-12-04T00:41:25.221Z,1.44
2022-12-04T00:43:52.286Z,1.47
2022-12-04T00:46:19.006Z,1.44
2022-12-04T00:48:46.400Z,1.32
2022-12-04T00:51:19.707Z,1.42
2022-12-04T00:53:46.524Z,1.36
2022-12-04T00:56:20.494Z,1.41
2022-12-04T00:58:47.543Z,1.42
2022-12-04T01:01:18.436Z,1.51
2022-12-04T01:03:45.689Z,1.44
2022-12-04T01:06:24.535Z,1.43
2022-12-04T01:08:53.673Z,1.53
2022-12-04T01:11:21.604Z,1.54
2022-12-04T01:13:48.449Z,1.40
2022-12-04T01:16:21.149Z,1.42
2022-12-04T01:18:47.764Z,1.36
2022-12-04T01:21:14.880Z,1.40
2022-12-04T01:23:41.565Z,1.27
2022-12-04T01:26:08.636Z,1.40
2022-12-04T01:28:35.203Z,1.43
2022-12-04T01:31:07.512Z,1.42
2022-12-04T01:33:36.417Z,1.51
2022-12-04T01:36:05.530Z,1.38
2022-12-04T01:38:32.191Z,1.44
2022-12-04T01:40:59.002Z,1.42
2022-12-04T01:43:28.731Z,1.54
2022-12-04T01:45:57.058Z,1.68
2022-12-04T01:48:31.068Z,1.72
2022-12-04T01:51:19.025Z,1.74
2022-12-04T01:53:57.627Z,1.70
2022-12-04T01:56:31.184Z,1.67
2022-12-04T01:58:58.978Z,1.62
2022-12-04T02:01:29.093Z,1.56
2022-12-04T02:03:55.915Z,1.60
2022-12-04T02:06:22.404Z,1.67
2022-12-04T02:08:48.912Z,1.53
2022-12-04T02:11:38.622Z,1.62
2022-12-04T02:14:31.276Z,1.65
2022-12-04T02:17:11.742Z,1.61
2022-12-04T02:20:19.163Z,1.58
2022-12-04T02:23:01.127Z,1.63
2022-12-04T02:25:46.177Z,1.63
2022-12-04T02:28:23.274Z,1.66
2022-12-04T02:30:52.868Z,1.66
2022-12-04T02:33:23.700Z,1.66
2022-12-04T02:36:17.365Z,1.67
2022-12-04T02:38:50.464Z,1.71
2022-12-04T02:41:21.892Z,1.68
2022-12-04T02:44:01.850Z,1.66
2022-12-04T02:46:42.106Z,1.63
2022-12-04T02:49:15.813Z,1.66
2022-12-04T02:51:43.810Z,1.70
2022-12-04T02:54:26.482Z,1.72
2022-12-04T02:56:54.767Z,1.69
2022-12-04T02:59:29.154Z,1.74
2022-12-04T03:01:59.990Z,1.78
2022-12-04T03:04:32.707Z,1.85
2022-12-04T03:07:28.010Z,1.90
2022-12-04T03:09:59.751Z,1.89
2022-12-04T03:12:36.135Z,1.81
2022-12-04T03:15:07.483Z,1.67
2022-12-04T03:17:40.706Z,1.81
2022-12-04T03:20:11.321Z,1.77
2022-12-04T03:22:41.015Z,1.80
2022-12-04T03:25:08.877Z,1.77
2022-12-04T03:27:45.509Z,1.70
2022-12-04T03:30:15.878Z,1.84
2022-12-04T03:32:45.910Z,1.71
2022-12-04T03:35:15.815Z,1.79
2022-12-04T03:38:24.027Z,1.74
2022-12-04T03:40:56.693Z,1.74
2022-12-04T03:43:28.104Z,1.65
2022-12-04T03:46:05.513Z,1.72
2022-12-04T03:48:42.344Z,1.65
2022-12-04T03:51:23.632Z,1.70
2022-12-04T03:54:02.025Z,1.71
2022-12-04T03:56:34.288Z,1.71
2022-12-04T03:59:09.228Z,1.75
2022-12-04T04:01:40.492Z,1.72
2022-12-04T04:04:12.657Z,1.64
2022-12-04T04:06:44.541Z,1.65
2022-12-04T04:09:19.883Z,1.68
2022-12-04T04:11:53.276Z,1.73
2022-12-04T04:15:01.517Z,1.71
2022-12-04T04:17:50.147Z,1.75
2022-12-04T04:20:39.583Z,1.84
2022-12-04T04:23:27.888Z,1.81
2022-12-04T04:25:58.109Z,1.81
2022-12-04T04:28:48.852Z,1.87
2022-12-04T04:31:23.918Z,1.83
2022-12-04T04:34:05.373Z,1.89
2022-12-04T04:37:03.120Z,1.92
2022-12-04T04:39:42.500Z,1.97
2022-12-04T04:42:23.778Z,1.95
2022-12-04T04:45:10.486Z,1.90
2022-12-04T04:47:45.555Z,1.96
2022-12-04T04:50:14.589Z,1.97
2022-12-04T04:52:45.118Z,1.86
2022-12-04T04:55:12.648Z,1.64
2022-12-04T04:57:39.212Z,2.03
2022-12-04T05:00:09.733Z,1.98
2022-12-04T05:02:36.540Z,2.04
2022-12-04T05:05:03.969Z,2.04
2022-12-04T05:07:30.566Z,2.01
2022-12-04T05:09:57.288Z,1.96
2022-12-04T05:12:24.034Z,2.00
2022-12-04T05:14:50.572Z,1.92
2022-12-04T05:17:17.423Z,2.01
2022-12-04T05:19:57.362Z,1.76
2022-12-04T05:22:31.469Z,2.04
2022-12-04T05:24:58.422Z,2.00
2022-12-04T05:27:25.685Z,2.06
2022-12-04T05:29:56.620Z,2.07
2022-12-04T05:32:24.615Z,2.13
2022-12-04T05:34:53.136Z,2.18
2022-12-04T05:37:20.527Z,2.08
2022-12-04T05:39:47.238Z,2.13
2022-12-04T05:42:14.443Z,2.24
2022-12-04T05:44:41.115Z,2.17
2022-12-04T05:47:07.935Z,2.25
2022-12-04T05:49:35.201Z,2.16
2022-12-04T05:52:05.152Z,2.18
2022-12-04T05:54:31.999Z,2.11
2022-12-04T05:56:58.688Z,2.27
2022-12-04T05:59:25.262Z,2.25
2022-12-04T06:01:52.247Z,2.30
2022-12-04T06:04:18.831Z,2.33
2022-12-04T06:06:45.436Z,2.34
2022-12-04T06:09:12.931Z,2.34
2022-12-04T06:11:41.079Z,2.19
2022-12-04T06:14:12.699Z,2.25
2022-12-04T06:16:41.784Z,2.16
2022-12-04T06:19:14.744Z,2.12
2022-12-04T06:21:43.234Z,2.14
2022-12-04T06:24:14.139Z,2.16
2022-12-04T06:26:57.542Z,2.17
2022-12-04T06:29:27.274Z,2.15
2022-12-04T06:31:53.891Z,2.28
2022-12-04T06:34:20.418Z,2.26
2022-12-04T06:36:47.078Z,2.23
2022-12-04T06:39:18.465Z,2.24
2022-12-04T06:41:47.329Z,2.37
2022-12-04T06:44:15.433Z,2.39
2022-12-04T06:46:46.508Z,2.39
2022-12-04T06:49:13.921Z,2.38
2022-12-04T06:51:40.872Z,2.45
2022-12-04T06:54:07.911Z,2.56
2022-12-04T06:56:35.164Z,2.45
2022-12-04T06:59:04.270Z,2.59
2022-12-04T07:01:34.199Z,2.57
2022-12-04T07:04:03.794Z,2.56
2022-12-04T07:06:36.071Z,2.59
2022-12-04T07:09:10.462Z,2.52
2022-12-04T07:11:37.863Z,2.48
2022-12-04T07:14:04.452Z,2.43
2022-12-04T07:16:36.726Z,2.50
2022-12-04T07:19:07.198Z,2.57
2022-12-04T07:21:34.602Z,2.64
2022-12-04T07:24:01.729Z,2.73
2022-12-04T07:26:30.825Z,2.66
2022-12-04T07:28:58.743Z,2.72
2022-12-04T07:31:27.584Z,2.76
2022-12-04T07:33:54.621Z,2.73
2022-12-04T07:36:23.142Z,2.70
2022-12-04T07:38:50.692Z,2.60
2022-12-04T07:41:18.086Z,2.62
2022-12-04T07:43:44.912Z,2.65
2022-12-04T07:46:23.873Z,2.38
2022-12-04T07:48:50.754Z,2.71
2022-12-04T07:51:20.719Z,2.80
2022-12-04T07:53:47.869Z,2.77
2022-12-04T07:56:15.896Z,2.84
2022-12-04T07:58:43.265Z,2.87
2022-12-04T08:01:11.111Z,2.75
2022-12-04T08:03:43.540Z,2.78
2022-12-04T08:06:13.554Z,2.70
2022-12-04T08:08:40.135Z,2.67
2022-12-04T08:11:13.121Z,2.61
2022-12-04T08:13:39.784Z,2.34
2022-12-04T08:16:07.904Z,2.68
2022-12-04T08:18:34.936Z,2.61
2022-12-04T08:21:07.142Z,2.51
2022-12-04T08:23:34.022Z,2.61
2022-12-04T08:26:01.554Z,2.68
2022-12-04T08:28:28.583Z,2.70
2022-12-04T08:30:55.411Z,2.66
2022-12-04T08:33:22.073Z,2.56
2022-12-04T08:35:48.660Z,2.62
2022-12-04T08:38:15.277Z,2.36
2022-12-04T08:40:41.887Z,2.81
2022-12-04T08:43:08.426Z,2.87
2022-12-04T08:45:34.931Z,2.95
2022-12-04T08:48:02.173Z,2.97
2022-12-04T08:50:28.846Z,3.07
2022-12-04T08:52:55.403Z,3.07
2022-12-04T08:55:21.914Z,2.92
2022-12-04T08:57:50.957Z,3.04
2022-12-04T09:00:17.955Z,3.06
2022-12-04T09:02:44.676Z,3.10
2022-12-04T09:05:11.207Z,3.15
2022-12-04T09:07:37.752Z,3.00
2022-12-04T09:10:04.688Z,3.15
2022-12-04T09:12:31.236Z,3.18
2022-12-04T09:14:57.822Z,3.23
2022-12-04T09:17:24.331Z,2.90
2022-12-04T09:19:50.838Z,3.27
2022-12-04T09:22:17.346Z,3.11
2022-12-04T09:24:43.838Z,3.12
2022-12-04T09:27:14.724Z,3.16
2022-12-04T09:29:41.659Z,2.91
2022-12-04T09:32:08.162Z,3.11
2022-12-04T09:34:34.874Z,3.18
2022-12-04T09:37:01.576Z,3.30
2022-12-04T09:39:28.135Z,3.35
2022-12-04T09:42:26.498Z,3.32
2022-12-04T09:45:03.308Z,3.11
2022-12-04T09:47:35.874Z,3.16
2022-12-04T09:50:22.345Z,3.27
2022-12-04T09:53:00.890Z,3.20
2022-12-04T09:55:36.400Z,3.30
2022-12-04T09:58:06.558Z,3.22
2022-12-04T10:00:39.246Z,3.22
2022-12-04T10:03:12.397Z,3.20
2022-12-04T10:05:44.553Z,3.30
2022-12-04T10:08:17.469Z,3.29
2022-12-04T10:10:54.150Z,3.29
2022-12-04T10:13:39.424Z,3.33
2022-12-04T10:16:23.342Z,3.35
2022-12-04T10:19:08.233Z,3.31
2022-12-04T10:22:11.040Z,3.15
2022-12-04T10:24:52.493Z,3.37
2022-12-04T10:27:28.059Z,3.38
2022-12-04T10:29:59.079Z,3.40
2022-12-04T10:32:32.724Z,3.40
2022-12-04T10:35:19.922Z,3.39
2022-12-04T10:37:49.520Z,3.41
2022-12-04T10:40:28.228Z,3.43
2022-12-04T10:43:11.379Z,3.55
2022-12-04T10:45:37.942Z,3.52
2022-12-04T10:48:05.081Z,3.65
2022-12-04T10:50:31.776Z,3.73
2022-12-04T10:52:58.939Z,3.53
2022-12-04T10:55:34.643Z,3.71
2022-12-04T10:58:02.776Z,3.73
2022-12-04T11:00:32.541Z,3.68
2022-12-04T11:03:23.907Z,3.65
2022-12-04T11:05:56.690Z,3.73
2022-12-04T11:08:26.702Z,3.77
2022-12-04T11:11:01.903Z,3.77
2022-12-04T11:13:29.138Z,3.77
2022-12-04T11:15:57.714Z,3.78
2022-12-04T11:18:46.056Z,3.66
2022-12-04T11:21:18.995Z,3.60
2022-12-04T11:23:49.000Z,3.52
2022-12-04T11:26:18.694Z,3.56
2022-12-04T11:28:53.439Z,3.55
2022-12-04T11:31:21.994Z,3.62
2022-12-04T11:33:54.708Z,3.77
2022-12-04T11:36:29.847Z,3.83
2022-12-04T11:39:12.032Z,3.88
2022-12-04T11:41:38.807Z,3.72
2022-12-04T11:44:07.315Z,3.78
2022-12-04T11:46:34.495Z,3.60
2022-12-04T11:49:03.368Z,3.57
2022-12-04T11:52:10.156Z,3.49
2022-12-04T11:55:02.590Z,3.49
2022-12-04T11:57:55.739Z,3.54
2022-12-04T12:00:23.073Z,3.44
2022-12-04T12:03:01.547Z,2.96
2022-12-04T12:06:09.645Z,3.11
2022-12-04T12:08:58.262Z,3.16
2022-12-04T12:11:37.536Z,3.21
2022-12-04T12:14:28.622Z,3.23
2022-12-04T12:17:13.162Z,3.27
2022-12-04T12:19:55.824Z,3.30
2022-12-04T12:22:51.872Z,3.15
2022-12-04T12:25:34.453Z,3.09
2022-12-04T12:28:10.000Z,3.03
2022-12-04T12:30:50.482Z,3.09
2022-12-04T12:33:22.120Z,3.05
2022-12-04T12:36:03.879Z,3.08
2022-12-04T12:38:54.020Z,3.05
2022-12-04T12:41:34.643Z,3.10
2022-12-04T12:44:05.956Z,3.16
2022-12-04T12:46:39.194Z,3.19
2022-12-04T12:49:22.841Z,3.29
2022-12-04T12:51:58.403Z,3.28
2022-12-04T12:54:35.157Z,3.43
2022-12-04T12:57:07.122Z,3.45
2022-12-04T12:59:34.632Z,3.21
2022-12-04T13:02:13.054Z,3.10
2022-12-04T13:04:51.505Z,3.20
2022-12-04T13:07:17.949Z,3.36
2022-12-04T13:10:12.869Z,3.41
2022-12-04T13:12:49.255Z,3.35
2022-12-04T13:15:18.925Z,3.44
2022-12-04T13:17:47.950Z,3.52
2022-12-04T13:20:22.100Z,3.37
2022-12-04T13:23:19.532Z,3.34
2022-12-04T13:25:55.122Z,3.36
2022-12-04T13:28:36.489Z,3.35
2022-12-04T13:31:25.719Z,3.36
2022-12-04T13:34:30.009Z,3.41
2022-12-04T13:37:09.331Z,3.47
2022-12-04T13:39:54.787Z,3.37
2022-12-04T13:42:25.176Z,3.44
2022-12-04T13:45:00.396Z,3.47
2022-12-04T13:47:33.283Z,3.61
2022-12-04T13:50:27.665Z,3.66
2022-12-04T13:53:01.009Z,3.68
2022-12-04T13:55:37.336Z,3.61
2022-12-04T13:58:31.634Z,3.36
2022-12-04T14:01:13.117Z,3.10
2022-12-04T14:03:57.409Z,3.51
2022-12-04T14:15:00.719Z,3.68
2022-12-04T14:15:31.441Z,3.64
2022-12-04T14:18:07.224Z,3.67
2022-12-04T14:20:35.296Z,3.47
2022-12-04T14:23:26.420Z,3.55
2022-12-04T14:25:59.219Z,3.69
2022-12-04T14:28:42.282Z,3.81
2022-12-04T14:31:31.143Z,3.93
2022-12-04T14:34:32.114Z,3.83
2022-12-04T14:37:00.093Z,3.10
2022-12-04T14:39:38.036Z,3.78
2022-12-04T14:42:13.758Z,3.74
2022-12-04T14:44:41.709Z,3.07
2022-12-04T14:47:30.225Z,3.55
2022-12-04T14:50:09.142Z,3.72
2022-12-04T14:52:55.409Z,3.71
2022-12-04T14:55:35.992Z,3.74
2022-12-04T14:58:32.585Z,3.78
2022-12-04T15:01:02.164Z,3.82
2022-12-04T15:03:34.313Z,3.82
2022-12-04T15:06:07.697Z,3.27
2022-12-04T15:08:34.988Z,3.03
2022-12-04T15:11:20.882Z,2.88
2022-12-04T15:13:47.892Z,3.54
2022-12-04T15:16:20.174Z,3.63
2022-12-04T15:19:17.855Z,4.05
2022-12-04T15:21:45.235Z,4.14
2022-12-04T15:24:23.335Z,4.25
2022-12-04T15:26:52.406Z,4.33
2022-12-04T15:29:25.679Z,4.23
2022-12-04T15:31:56.929Z,4.03
2022-12-04T15:34:38.717Z,3.82
2022-12-04T15:37:22.684Z,3.80
2022-12-04T15:39:52.356Z,3.86
2022-12-04T15:42:27.140Z,3.56
2022-12-04T15:45:24.397Z,3.64
2022-12-04T15:47:58.654Z,3.65
2022-12-04T15:50:29.101Z,3.40
2022-12-04T15:53:16.948Z,3.57
2022-12-04T15:55:52.298Z,3.55
2022-12-04T15:58:27.523Z,3.20
2022-12-04T16:01:06.818Z,3.45
2022-12-04T16:03:45.420Z,3.47
2022-12-04T16:06:32.799Z,3.41
2022-12-04T16:09:12.151Z,3.48
2022-12-04T16:11:39.359Z,3.27
2022-12-04T16:14:08.983Z,3.48
2022-12-04T16:16:38.737Z,3.42
2022-12-04T16:19:14.118Z,3.06
2022-12-04T16:21:41.006Z,3.34
2022-12-04T16:24:11.389Z,3.41
2022-12-04T16:26:37.977Z,3.04
2022-12-04T16:29:04.627Z,3.29
2022-12-04T16:31:31.349Z,3.26
2022-12-04T16:33:58.407Z,3.19
2022-12-04T16:36:25.070Z,2.83
2022-12-04T16:38:51.626Z,3.44
2022-12-04T16:41:27.496Z,3.78
2022-12-04T16:43:56.740Z,3.54
2022-12-04T16:46:25.054Z,3.76
2022-12-04T16:48:51.791Z,3.53
2022-12-04T16:51:24.802Z,3.72
2022-12-04T16:53:52.253Z,3.89
2022-12-04T16:56:31.095Z,3.50
2022-12-04T16:58:58.176Z,3.34
2022-12-04T17:01:29.850Z,3.00
2022-12-04T17:04:02.152Z,2.92
2022-12-04T17:06:34.310Z,3.85
2022-12-04T17:09:01.397Z,3.71
2022-12-04T17:11:28.189Z,3.55
2022-12-04T17:13:57.859Z,3.38
2022-12-04T17:16:28.030Z,3.25
2022-12-04T17:18:54.655Z,3.43
2022-12-04T17:21:24.323Z,3.27
2022-12-04T17:23:53.568Z,3.84
2022-12-04T17:26:20.139Z,3.35
2022-12-04T17:28:49.425Z,3.70
2022-12-04T17:31:21.728Z,3.32
2022-12-04T17:33:48.517Z,3.37
2022-12-04T17:36:20.688Z,3.77
2022-12-04T17:38:47.236Z,3.52
2022-12-04T17:41:15.525Z,3.43
2022-12-04T17:43:43.811Z,3.16
2022-12-04T17:46:16.754Z,3.25
2022-12-04T17:48:43.809Z,3.72
2022-12-04T17:51:16.540Z,3.28
2022-12-04T17:53:43.747Z,3.20
2022-12-04T17:56:13.750Z,3.73
2022-12-04T17:58:40.412Z,3.64
2022-12-04T18:01:16.261Z,3.62
2022-12-04T18:03:43.899Z,3.03
2022-12-04T18:06:15.820Z,3.71
2022-12-04T18:08:48.153Z,3.71
2022-12-04T18:11:16.872Z,3.59
2022-12-04T18:13:43.467Z,3.45
2022-12-04T18:16:11.428Z,3.61
2022-12-04T18:18:39.121Z,3.17
2022-12-04T18:21:11.474Z,3.23
2022-12-04T18:23:45.738Z,3.47
2022-12-04T18:26:14.633Z,3.13
2022-12-04T18:28:41.941Z,2.91
2022-12-04T18:31:11.458Z,3.32
2022-12-04T18:33:39.803Z,3.60
2022-12-04T18:36:09.181Z,3.47
2022-12-04T18:38:35.908Z,3.23
2022-12-04T18:41:04.309Z,3.62
2022-12-04T18:43:34.578Z,3.64
2022-12-04T18:46:07.905Z,3.66
2022-12-04T18:48:35.622Z,3.65
2022-12-04T18:51:02.654Z,3.09
2022-12-04T18:53:29.325Z,2.91
2022-12-04T18:55:55.869Z,3.66
2022-12-04T18:58:22.941Z,3.58
2022-12-04T19:00:49.684Z,3.25
2022-12-04T19:03:16.430Z,3.56
2022-12-04T19:05:50.339Z,3.54
2022-12-04T19:08:17.605Z,3.05
2022-12-04T19:10:44.355Z,3.64
2022-12-04T19:13:15.038Z,3.33
2022-12-04T19:15:43.338Z,3.62
2022-12-04T19:18:18.389Z,3.64
2022-12-04T19:20:45.376Z,3.62
2022-12-04T19:23:12.065Z,3.27
2022-12-04T19:25:39.013Z,3.55
2022-12-04T19:28:05.995Z,3.61
2022-12-04T19:30:33.765Z,3.61
2022-12-04T19:33:01.427Z,3.35
2022-12-04T19:35:28.610Z,3.63
2022-12-04T19:37:55.226Z,3.59
2022-12-04T19:40:22.791Z,3.67
2022-12-04T19:43:02.514Z,3.64
2022-12-04T19:45:30.973Z,3.12
2022-12-04T19:47:57.921Z,3.07
2022-12-04T19:50:24.573Z,3.41
2022-12-04T19:52:54.970Z,3.61
2022-12-04T19:55:26.388Z,3.40
2022-12-04T19:57:52.929Z,3.00
2022-12-04T20:00:19.990Z,3.56
2022-12-04T20:02:46.604Z,3.54
2022-12-04T20:05:13.217Z,3.62
2022-12-04T20:07:42.031Z,3.11
2022-12-04T20:10:11.781Z,3.33
2022-12-04T20:12:38.568Z,3.37
2022-12-04T20:15:05.476Z,3.60
2022-12-04T20:17:32.160Z,3.10
2022-12-04T20:20:02.043Z,3.24
2022-12-04T20:22:28.595Z,2.94
2022-12-04T20:24:57.966Z,3.45
2022-12-04T20:27:24.517Z,3.53
2022-12-04T20:29:51.067Z,3.49
2022-12-04T20:32:19.596Z,3.50
2022-12-04T20:34:49.095Z,3.54
2022-12-04T20:37:15.858Z,3.47
2022-12-04T20:39:42.574Z,3.37
2022-12-04T20:42:09.269Z,3.36
2022-12-04T20:44:35.885Z,3.08
2022-12-04T20:47:04.797Z,3.32
2022-12-04T20:49:31.372Z,3.38
2022-12-04T20:51:58.093Z,3.31
2022-12-04T20:54:24.738Z,3.40
2022-12-04T20:56:53.503Z,2.72
2022-12-04T20:59:22.498Z,3.11
2022-12-04T21:01:49.501Z,3.20
2022-12-04T21:04:17.763Z,3.37
2022-12-04T21:06:46.571Z,3.37
2022-12-04T21:09:22.669Z,3.40
2022-12-04T21:11:54.393Z,3.30
2022-12-04T21:14:48.387Z,2.93
2022-12-04T21:17:20.949Z,2.62
2022-12-04T21:19:49.952Z,2.47
2022-12-04T21:22:18.263Z,3.27
2022-12-04T21:24:50.258Z,3.29
2022-12-04T21:27:21.379Z,3.04
2022-12-04T21:29:49.283Z,3.23
2022-12-04T21:32:16.881Z,3.26
2022-12-04T21:34:43.477Z,3.17
2022-12-04T21:37:13.117Z,3.31
2022-12-04T21:39:40.043Z,3.22
2022-12-04T21:42:25.481Z,3.24
2022-12-04T21:44:52.295Z,3.19
2022-12-04T21:47:21.954Z,2.74
2022-12-04T21:49:48.677Z,3.13
2022-12-04T21:52:21.337Z,3.14
2022-12-04T21:54:52.341Z,3.05
2022-12-04T21:57:19.540Z,3.02
2022-12-04T21:59:46.703Z,3.09
2022-12-04T22:02:15.106Z,3.20
2022-12-04T22:04:41.837Z,2.97
2022-12-04T22:07:10.661Z,3.19
2022-12-04T22:09:38.958Z,2.86
2022-12-04T22:12:26.382Z,2.72
2022-12-04T22:14:53.717Z,2.52
2022-12-04T22:17:23.146Z,2.99
2022-12-04T22:19:49.713Z,2.40
2022-12-04T22:22:16.279Z,3.11
2022-12-04T22:24:43.151Z,2.48
2022-12-04T22:27:14.794Z,2.83
2022-12-04T22:30:02.133Z,3.06
2022-12-04T22:32:28.165Z,3.15
2022-12-04T22:34:54.778Z,3.14
2022-12-04T22:37:21.503Z,3.03
2022-12-04T22:39:48.085Z,2.85
2022-12-04T22:42:14.721Z,2.92
2022-12-04T22:44:43.044Z,2.98
2022-12-04T22:47:12.517Z,2.88
2022-12-04T22:49:39.438Z,2.95
2022-12-04T22:52:06.009Z,3.06
2022-12-04T22:54:32.720Z,3.08
2022-12-04T22:56:59.263Z,2.97
2022-12-04T22:59:25.768Z,3.09
2022-12-04T23:01:52.456Z,3.07
2022-12-04T23:04:21.799Z,2.85
2022-12-04T23:06:48.472Z,2.77
2022-12-04T23:09:17.269Z,2.75
2022-12-04T23:11:44.787Z,2.85
2022-12-04T23:14:14.390Z,2.92
2022-12-04T23:16:41.252Z,2.84
2022-12-04T23:19:11.184Z,2.91
2022-12-04T23:21:37.752Z,2.94
2022-12-04T23:24:05.067Z,2.95
2022-12-04T23:26:41.351Z,2.56
2022-12-04T23:29:29.728Z,2.29
2022-12-04T23:31:55.306Z,2.43
2022-12-04T23:34:22.074Z,2.12
2022-12-04T23:36:48.714Z,2.14
2022-12-04T23:39:15.379Z,2.10
2022-12-04T23:41:41.953Z,2.36
2022-12-04T23:44:08.492Z,2.96
2022-12-04T23:46:35.107Z,2.98
2022-12-04T23:49:01.823Z,2.97
2022-12-04T23:51:28.638Z,2.97
2022-12-04T23:53:55.233Z,2.94
2022-12-04T23:56:24.819Z,2.86
2022-12-04T23:58:54.021Z,3.06
